sensor_id;sensor_type;location;lat;lon;timestamp;P1;durP1;ratioP1;P2;durP2;ratioP2
17595;SDS011;8916;47.086;15.920;2023-01-20T00:02:45;95.38;;;32.05;;
17595;SDS011;8916;47.086;15.920;2023-01-20T00:05:15;77.95;;;31.23;;
17595;SDS011;8916;47.086;15.920;2023-01-20T00:07:44;73.47;;;27.33;;
17595;SDS011;8916;47.086;15.920;2023-01-20T00:10:13;110.63;;;29.75;;
17595;SDS011;8916;47.086;15.920;2023-01-20T00:12:43;101.53;;;30.08;;
17595;SDS011;8916;47.086;15.920;2023-01-20T00:15:12;81.55;;;28.08;;
17595;SDS011;8916;47.086;15.920;2023-01-20T00:17:42;115.90;;;30.38;;
17595;SDS011;8916;47.086;15.920;2023-01-20T00:20:13;170.77;;;32.90;;
17595;SDS011;8916;47.086;15.920;2023-01-20T00:22:42;95.57;;;28.83;;
17595;SDS011;8916;47.086;15.920;2023-01-20T00:25:11;104.25;;;28.20;;
17595;SDS011;8916;47.086;15.920;2023-01-20T00:27:42;66.75;;;25.65;;
17595;SDS011;8916;47.086;15.920;2023-01-20T00:30:13;60.95;;;26.75;;
17595;SDS011;8916;47.086;15.920;2023-01-20T00:32:42;108.78;;;28.08;;
17595;SDS011;8916;47.086;15.920;2023-01-20T00:35:13;83.88;;;25.75;;
17595;SDS011;8916;47.086;15.920;2023-01-20T00:37:42;96.97;;;25.73;;
17595;SDS011;8916;47.086;15.920;2023-01-20T00:40:12;142.32;;;30.60;;
17595;SDS011;8916;47.086;15.920;2023-01-20T00:42:41;204.07;;;30.88;;
17595;SDS011;8916;47.086;15.920;2023-01-20T00:45:11;215.60;;;33.40;;
17595;SDS011;8916;47.086;15.920;2023-01-20T00:47:40;190.63;;;46.35;;
17595;SDS011;8916;47.086;15.920;2023-01-20T00:50:09;350.10;;;50.80;;
17595;SDS011;8916;47.086;15.920;2023-01-20T00:52:42;314.50;;;37.67;;
17595;SDS011;8916;47.086;15.920;2023-01-20T00:55:11;201.32;;;45.85;;
17595;SDS011;8916;47.086;15.920;2023-01-20T00:57:41;94.25;;;33.92;;
17595;SDS011;8916;47.086;15.920;2023-01-20T01:00:11;171.98;;;37.17;;
17595;SDS011;8916;47.086;15.920;2023-01-20T01:02:43;76.45;;;30.13;;
17595;SDS011;8916;47.086;15.920;2023-01-20T01:05:12;81.93;;;31.00;;
17595;SDS011;8916;47.086;15.920;2023-01-20T01:07:43;66.45;;;29.33;;
17595;SDS011;8916;47.086;15.920;2023-01-20T01:10:12;69.07;;;31.90;;
17595;SDS011;8916;47.086;15.920;2023-01-20T01:12:42;70.00;;;29.60;;
17595;SDS011;8916;47.086;15.920;2023-01-20T01:15:11;77.93;;;29.67;;
17595;SDS011;8916;47.086;15.920;2023-01-20T01:17:41;63.38;;;29.30;;
17595;SDS011;8916;47.086;15.920;2023-01-20T01:20:11;61.28;;;28.77;;
17595;SDS011;8916;47.086;15.920;2023-01-20T01:22:42;55.95;;;27.63;;
17595;SDS011;8916;47.086;15.920;2023-01-20T01:25:12;56.67;;;27.13;;
17595;SDS011;8916;47.086;15.920;2023-01-20T01:27:41;51.08;;;25.80;;
17595;SDS011;8916;47.086;15.920;2023-01-20T01:30:11;52.92;;;25.98;;
17595;SDS011;8916;47.086;15.920;2023-01-20T01:32:41;52.42;;;26.25;;
17595;SDS011;8916;47.086;15.920;2023-01-20T01:35:10;54.45;;;26.40;;
17595;SDS011;8916;47.086;15.920;2023-01-20T01:37:40;51.75;;;25.30;;
17595;SDS011;8916;47.086;15.920;2023-01-20T01:40:11;56.28;;;27.67;;
17595;SDS011;8916;47.086;15.920;2023-01-20T01:42:40;51.88;;;24.85;;
17595;SDS011;8916;47.086;15.920;2023-01-20T01:48:03;46.20;;;24.25;;
17595;SDS011;8916;47.086;15.920;2023-01-20T01:50:37;51.92;;;25.17;;
17595;SDS011;8916;47.086;15.920;2023-01-20T01:53:12;48.22;;;24.73;;
17595;SDS011;8916;47.086;15.920;2023-01-20T01:55:45;46.08;;;23.45;;
17595;SDS011;8916;47.086;15.920;2023-01-20T01:58:19;46.90;;;23.80;;
17595;SDS011;8916;47.086;15.920;2023-01-20T02:00:54;48.53;;;23.50;;
17595;SDS011;8916;47.086;15.920;2023-01-20T02:03:25;48.88;;;24.38;;
17595;SDS011;8916;47.086;15.920;2023-01-20T02:06:01;47.53;;;24.77;;
17595;SDS011;8916;47.086;15.920;2023-01-20T02:08:32;51.15;;;24.95;;
17595;SDS011;8916;47.086;15.920;2023-01-20T02:11:03;43.35;;;22.80;;
17595;SDS011;8916;47.086;15.920;2023-01-20T02:13:36;45.38;;;23.58;;
17595;SDS011;8916;47.086;15.920;2023-01-20T02:16:07;47.22;;;23.75;;
17595;SDS011;8916;47.086;15.920;2023-01-20T02:18:45;44.53;;;23.23;;
17595;SDS011;8916;47.086;15.920;2023-01-20T02:21:37;45.35;;;22.17;;
17595;SDS011;8916;47.086;15.920;2023-01-20T02:24:50;42.95;;;22.13;;
17595;SDS011;8916;47.086;15.920;2023-01-20T02:27:58;39.47;;;20.80;;
17595;SDS011;8916;47.086;15.920;2023-01-20T02:34:30;41.33;;;21.35;;
17595;SDS011;8916;47.086;15.920;2023-01-20T02:37:05;43.20;;;22.27;;
17595;SDS011;8916;47.086;15.920;2023-01-20T02:39:43;50.08;;;24.08;;
17595;SDS011;8916;47.086;15.920;2023-01-20T02:42:23;46.13;;;23.23;;
17595;SDS011;8916;47.086;15.920;2023-01-20T02:45:01;46.17;;;23.42;;
17595;SDS011;8916;47.086;15.920;2023-01-20T02:47:36;46.80;;;23.17;;
17595;SDS011;8916;47.086;15.920;2023-01-20T02:50:22;46.80;;;23.02;;
17595;SDS011;8916;47.086;15.920;2023-01-20T02:52:57;46.63;;;23.35;;
17595;SDS011;8916;47.086;15.920;2023-01-20T02:55:30;44.47;;;23.17;;
17595;SDS011;8916;47.086;15.920;2023-01-20T02:58:06;46.22;;;23.35;;
17595;SDS011;8916;47.086;15.920;2023-01-20T03:00:41;46.97;;;24.05;;
17595;SDS011;8916;47.086;15.920;2023-01-20T03:03:16;36.20;;;17.87;;
17595;SDS011;8916;47.086;15.920;2023-01-20T03:05:53;44.65;;;23.27;;
17595;SDS011;8916;47.086;15.920;2023-01-20T03:08:26;43.50;;;21.75;;
17595;SDS011;8916;47.086;15.920;2023-01-20T03:11:01;42.00;;;22.92;;
17595;SDS011;8916;47.086;15.920;2023-01-20T03:13:34;42.50;;;22.10;;
17595;SDS011;8916;47.086;15.920;2023-01-20T03:16:09;47.28;;;23.80;;
17595;SDS011;8916;47.086;15.920;2023-01-20T03:18:41;43.60;;;22.48;;
17595;SDS011;8916;47.086;15.920;2023-01-20T03:21:12;46.00;;;23.58;;
17595;SDS011;8916;47.086;15.920;2023-01-20T03:23:43;49.03;;;24.50;;
17595;SDS011;8916;47.086;15.920;2023-01-20T03:26:14;42.20;;;23.27;;
17595;SDS011;8916;47.086;15.920;2023-01-20T03:28:46;54.83;;;25.73;;
17595;SDS011;8916;47.086;15.920;2023-01-20T03:31:17;50.95;;;23.52;;
17595;SDS011;8916;47.086;15.920;2023-01-20T03:33:50;49.83;;;24.35;;
17595;SDS011;8916;47.086;15.920;2023-01-20T03:36:23;50.75;;;24.88;;
17595;SDS011;8916;47.086;15.920;2023-01-20T03:38:57;45.35;;;23.45;;
17595;SDS011;8916;47.086;15.920;2023-01-20T03:41:29;44.40;;;23.13;;
17595;SDS011;8916;47.086;15.920;2023-01-20T03:44:09;48.33;;;24.48;;
17595;SDS011;8916;47.086;15.920;2023-01-20T03:46:46;47.95;;;22.73;;
17595;SDS011;8916;47.086;15.920;2023-01-20T03:49:24;37.95;;;19.05;;
17595;SDS011;8916;47.086;15.920;2023-01-20T03:52:03;57.38;;;25.85;;
17595;SDS011;8916;47.086;15.920;2023-01-20T03:54:39;54.15;;;27.75;;
17595;SDS011;8916;47.086;15.920;2023-01-20T03:57:16;58.92;;;27.42;;
17595;SDS011;8916;47.086;15.920;2023-01-20T03:59:49;57.95;;;27.02;;
17595;SDS011;8916;47.086;15.920;2023-01-20T04:02:20;56.25;;;26.25;;
17595;SDS011;8916;47.086;15.920;2023-01-20T04:04:51;55.55;;;27.08;;
17595;SDS011;8916;47.086;15.920;2023-01-20T04:07:23;52.78;;;25.67;;
17595;SDS011;8916;47.086;15.920;2023-01-20T04:09:54;55.45;;;25.75;;
17595;SDS011;8916;47.086;15.920;2023-01-20T04:12:31;53.00;;;25.87;;
17595;SDS011;8916;47.086;15.920;2023-01-20T04:15:00;52.58;;;26.23;;
17595;SDS011;8916;47.086;15.920;2023-01-20T04:17:29;52.53;;;25.27;;
17595;SDS011;8916;47.086;15.920;2023-01-20T04:20:02;54.22;;;25.00;;
17595;SDS011;8916;47.086;15.920;2023-01-20T04:22:40;58.90;;;27.27;;
17595;SDS011;8916;47.086;15.920;2023-01-20T04:25:24;56.45;;;27.08;;
17595;SDS011;8916;47.086;15.920;2023-01-20T04:27:57;55.42;;;26.10;;
17595;SDS011;8916;47.086;15.920;2023-01-20T04:30:26;52.90;;;25.75;;
17595;SDS011;8916;47.086;15.920;2023-01-20T04:32:55;60.08;;;27.60;;
17595;SDS011;8916;47.086;15.920;2023-01-20T04:35:25;56.45;;;27.00;;
17595;SDS011;8916;47.086;15.920;2023-01-20T04:37:55;66.75;;;28.65;;
17595;SDS011;8916;47.086;15.920;2023-01-20T04:40:25;65.88;;;29.23;;
17595;SDS011;8916;47.086;15.920;2023-01-20T04:42:54;65.72;;;28.55;;
17595;SDS011;8916;47.086;15.920;2023-01-20T04:45:23;70.47;;;31.20;;
17595;SDS011;8916;47.086;15.920;2023-01-20T04:47:53;67.53;;;31.75;;
17595;SDS011;8916;47.086;15.920;2023-01-20T04:50:22;65.15;;;31.35;;
17595;SDS011;8916;47.086;15.920;2023-01-20T04:52:53;65.68;;;31.05;;
17595;SDS011;8916;47.086;15.920;2023-01-20T04:55:24;50.78;;;24.60;;
17595;SDS011;8916;47.086;15.920;2023-01-20T04:57:53;55.22;;;24.70;;
17595;SDS011;8916;47.086;15.920;2023-01-20T05:00:23;48.45;;;23.63;;
17595;SDS011;8916;47.086;15.920;2023-01-20T05:02:55;42.28;;;21.80;;
17595;SDS011;8916;47.086;15.920;2023-01-20T05:05:25;46.40;;;22.92;;
17595;SDS011;8916;47.086;15.920;2023-01-20T05:07:54;51.90;;;25.15;;
17595;SDS011;8916;47.086;15.920;2023-01-20T05:10:27;55.08;;;26.40;;
17595;SDS011;8916;47.086;15.920;2023-01-20T05:12:56;63.00;;;27.33;;
17595;SDS011;8916;47.086;15.920;2023-01-20T05:15:25;58.42;;;27.65;;
17595;SDS011;8916;47.086;15.920;2023-01-20T05:17:55;63.67;;;27.48;;
17595;SDS011;8916;47.086;15.920;2023-01-20T05:20:24;57.17;;;26.25;;
17595;SDS011;8916;47.086;15.920;2023-01-20T05:22:53;54.15;;;25.52;;
17595;SDS011;8916;47.086;15.920;2023-01-20T05:25:22;48.47;;;24.77;;
17595;SDS011;8916;47.086;15.920;2023-01-20T05:27:53;48.33;;;24.40;;
17595;SDS011;8916;47.086;15.920;2023-01-20T05:30:22;49.03;;;24.27;;
17595;SDS011;8916;47.086;15.920;2023-01-20T05:32:51;59.08;;;26.95;;
17595;SDS011;8916;47.086;15.920;2023-01-20T05:35:21;56.35;;;28.13;;
17595;SDS011;8916;47.086;15.920;2023-01-20T05:37:51;55.95;;;26.63;;
17595;SDS011;8916;47.086;15.920;2023-01-20T05:40:23;57.30;;;27.00;;
17595;SDS011;8916;47.086;15.920;2023-01-20T05:42:53;57.00;;;28.10;;
17595;SDS011;8916;47.086;15.920;2023-01-20T05:45:26;61.17;;;28.65;;
17595;SDS011;8916;47.086;15.920;2023-01-20T05:47:56;53.13;;;25.85;;
17595;SDS011;8916;47.086;15.920;2023-01-20T05:50:27;52.33;;;24.83;;
17595;SDS011;8916;47.086;15.920;2023-01-20T05:52:57;51.70;;;25.52;;
17595;SDS011;8916;47.086;15.920;2023-01-20T05:55:26;45.17;;;23.25;;
17595;SDS011;8916;47.086;15.920;2023-01-20T05:57:58;44.30;;;22.05;;
17595;SDS011;8916;47.086;15.920;2023-01-20T06:00:31;45.80;;;23.83;;
17595;SDS011;8916;47.086;15.920;2023-01-20T06:03:00;49.17;;;24.55;;
17595;SDS011;8916;47.086;15.920;2023-01-20T06:05:30;44.45;;;22.92;;
17595;SDS011;8916;47.086;15.920;2023-01-20T06:08:02;47.28;;;24.08;;
17595;SDS011;8916;47.086;15.920;2023-01-20T06:10:32;46.90;;;23.92;;
17595;SDS011;8916;47.086;15.920;2023-01-20T06:13:02;52.53;;;25.65;;
17595;SDS011;8916;47.086;15.920;2023-01-20T06:15:31;42.08;;;22.58;;
17595;SDS011;8916;47.086;15.920;2023-01-20T06:18:01;41.00;;;21.70;;
17595;SDS011;8916;47.086;15.920;2023-01-20T06:20:30;40.08;;;21.95;;
17595;SDS011;8916;47.086;15.920;2023-01-20T06:22:59;39.83;;;21.65;;
17595;SDS011;8916;47.086;15.920;2023-01-20T06:25:28;41.03;;;21.88;;
17595;SDS011;8916;47.086;15.920;2023-01-20T06:27:58;41.10;;;21.60;;
17595;SDS011;8916;47.086;15.920;2023-01-20T06:30:29;41.33;;;20.63;;
17595;SDS011;8916;47.086;15.920;2023-01-20T06:32:58;35.20;;;19.95;;
17595;SDS011;8916;47.086;15.920;2023-01-20T06:35:28;41.72;;;21.67;;
17595;SDS011;8916;47.086;15.920;2023-01-20T06:37:57;38.83;;;20.17;;
17595;SDS011;8916;47.086;15.920;2023-01-20T06:40:26;36.88;;;21.00;;
17595;SDS011;8916;47.086;15.920;2023-01-20T06:42:56;36.92;;;19.85;;
17595;SDS011;8916;47.086;15.920;2023-01-20T06:45:25;35.70;;;19.42;;
17595;SDS011;8916;47.086;15.920;2023-01-20T06:48:00;33.13;;;17.75;;
17595;SDS011;8916;47.086;15.920;2023-01-20T06:50:29;40.33;;;18.67;;
17595;SDS011;8916;47.086;15.920;2023-01-20T06:52:59;35.28;;;18.95;;
17595;SDS011;8916;47.086;15.920;2023-01-20T06:55:28;37.70;;;21.05;;
17595;SDS011;8916;47.086;15.920;2023-01-20T06:57:57;37.47;;;19.20;;
17595;SDS011;8916;47.086;15.920;2023-01-20T07:00:27;35.50;;;19.00;;
17595;SDS011;8916;47.086;15.920;2023-01-20T07:03:00;35.97;;;19.10;;
17595;SDS011;8916;47.086;15.920;2023-01-20T07:05:29;32.85;;;18.38;;
17595;SDS011;8916;47.086;15.920;2023-01-20T07:07:59;38.50;;;20.08;;
17595;SDS011;8916;47.086;15.920;2023-01-20T07:10:28;34.25;;;18.52;;
17595;SDS011;8916;47.086;15.920;2023-01-20T07:12:57;31.30;;;18.33;;
17595;SDS011;8916;47.086;15.920;2023-01-20T07:15:26;32.30;;;18.05;;
17595;SDS011;8916;47.086;15.920;2023-01-20T07:17:55;30.67;;;17.65;;
17595;SDS011;8916;47.086;15.920;2023-01-20T07:20:27;37.25;;;19.52;;
17595;SDS011;8916;47.086;15.920;2023-01-20T07:22:58;32.08;;;18.30;;
17595;SDS011;8916;47.086;15.920;2023-01-20T07:25:27;31.33;;;18.38;;
17595;SDS011;8916;47.086;15.920;2023-01-20T07:27:56;37.05;;;19.00;;
17595;SDS011;8916;47.086;15.920;2023-01-20T07:30:25;31.33;;;17.60;;
17595;SDS011;8916;47.086;15.920;2023-01-20T07:32:54;31.65;;;17.52;;
17595;SDS011;8916;47.086;15.920;2023-01-20T07:35:24;32.40;;;18.42;;
17595;SDS011;8916;47.086;15.920;2023-01-20T07:37:54;31.98;;;17.98;;
17595;SDS011;8916;47.086;15.920;2023-01-20T07:40:23;35.55;;;18.77;;
17595;SDS011;8916;47.086;15.920;2023-01-20T07:42:52;35.78;;;20.20;;
17595;SDS011;8916;47.086;15.920;2023-01-20T07:45:21;41.10;;;21.23;;
17595;SDS011;8916;47.086;15.920;2023-01-20T07:47:54;37.42;;;20.27;;
17595;SDS011;8916;47.086;15.920;2023-01-20T07:50:23;35.72;;;20.65;;
17595;SDS011;8916;47.086;15.920;2023-01-20T07:52:52;33.22;;;18.30;;
17595;SDS011;8916;47.086;15.920;2023-01-20T07:55:23;31.95;;;18.35;;
17595;SDS011;8916;47.086;15.920;2023-01-20T07:57:52;32.42;;;18.30;;
17595;SDS011;8916;47.086;15.920;2023-01-20T08:00:22;29.67;;;17.52;;
17595;SDS011;8916;47.086;15.920;2023-01-20T08:02:51;28.60;;;17.00;;
17595;SDS011;8916;47.086;15.920;2023-01-20T08:05:21;26.40;;;15.52;;
17595;SDS011;8916;47.086;15.920;2023-01-20T08:07:50;27.23;;;16.25;;
17595;SDS011;8916;47.086;15.920;2023-01-20T08:10:19;27.55;;;15.13;;
17595;SDS011;8916;47.086;15.920;2023-01-20T08:12:50;27.50;;;15.18;;
17595;SDS011;8916;47.086;15.920;2023-01-20T08:15:19;29.63;;;16.40;;
17595;SDS011;8916;47.086;15.920;2023-01-20T08:17:51;27.42;;;15.00;;
17595;SDS011;8916;47.086;15.920;2023-01-20T08:20:21;26.48;;;15.25;;
17595;SDS011;8916;47.086;15.920;2023-01-20T08:22:50;24.83;;;13.95;;
17595;SDS011;8916;47.086;15.920;2023-01-20T08:25:19;24.25;;;14.02;;
17595;SDS011;8916;47.086;15.920;2023-01-20T08:27:49;28.85;;;15.27;;
17595;SDS011;8916;47.086;15.920;2023-01-20T08:30:19;27.40;;;14.32;;
17595;SDS011;8916;47.086;15.920;2023-01-20T08:32:48;26.83;;;14.45;;
17595;SDS011;8916;47.086;15.920;2023-01-20T08:35:18;25.92;;;14.85;;
17595;SDS011;8916;47.086;15.920;2023-01-20T08:37:50;22.92;;;13.75;;
17595;SDS011;8916;47.086;15.920;2023-01-20T08:40:19;22.88;;;14.43;;
17595;SDS011;8916;47.086;15.920;2023-01-20T08:42:48;26.80;;;14.95;;
17595;SDS011;8916;47.086;15.920;2023-01-20T08:45:19;25.35;;;14.70;;
17595;SDS011;8916;47.086;15.920;2023-01-20T08:47:48;25.48;;;13.52;;
17595;SDS011;8916;47.086;15.920;2023-01-20T08:50:18;24.83;;;14.07;;
17595;SDS011;8916;47.086;15.920;2023-01-20T08:52:48;24.75;;;14.18;;
17595;SDS011;8916;47.086;15.920;2023-01-20T08:55:18;24.48;;;14.02;;
17595;SDS011;8916;47.086;15.920;2023-01-20T08:57:47;26.50;;;14.02;;
17595;SDS011;8916;47.086;15.920;2023-01-20T09:00:18;24.48;;;13.30;;
17595;SDS011;8916;47.086;15.920;2023-01-20T09:02:48;25.13;;;13.55;;
17595;SDS011;8916;47.086;15.920;2023-01-20T09:05:18;24.67;;;12.90;;
17595;SDS011;8916;47.086;15.920;2023-01-20T09:07:48;20.73;;;12.73;;
17595;SDS011;8916;47.086;15.920;2023-01-20T09:10:17;25.65;;;12.95;;
17595;SDS011;8916;47.086;15.920;2023-01-20T09:12:47;23.60;;;13.15;;
17595;SDS011;8916;47.086;15.920;2023-01-20T09:15:17;20.55;;;11.45;;
17595;SDS011;8916;47.086;15.920;2023-01-20T09:17:47;19.80;;;12.20;;
17595;SDS011;8916;47.086;15.920;2023-01-20T09:20:16;25.58;;;12.95;;
17595;SDS011;8916;47.086;15.920;2023-01-20T09:22:46;20.15;;;11.70;;
17595;SDS011;8916;47.086;15.920;2023-01-20T09:25:15;22.67;;;12.07;;
17595;SDS011;8916;47.086;15.920;2023-01-20T09:27:45;20.30;;;11.48;;
17595;SDS011;8916;47.086;15.920;2023-01-20T09:30:14;21.00;;;12.15;;
17595;SDS011;8916;47.086;15.920;2023-01-20T09:32:47;20.83;;;12.15;;
17595;SDS011;8916;47.086;15.920;2023-01-20T09:35:19;18.85;;;11.40;;
17595;SDS011;8916;47.086;15.920;2023-01-20T09:37:48;23.58;;;11.20;;
17595;SDS011;8916;47.086;15.920;2023-01-20T09:40:37;18.88;;;10.52;;
17595;SDS011;8916;47.086;15.920;2023-01-20T09:43:35;22.95;;;11.23;;
17595;SDS011;8916;47.086;15.920;2023-01-20T09:46:32;15.93;;;9.93;;
17595;SDS011;8916;47.086;15.920;2023-01-20T09:49:38;19.52;;;10.52;;
17595;SDS011;8916;47.086;15.920;2023-01-20T09:52:35;18.30;;;10.35;;
17595;SDS011;8916;47.086;15.920;2023-01-20T09:55:23;17.17;;;10.25;;
17595;SDS011;8916;47.086;15.920;2023-01-20T09:58:00;17.73;;;9.63;;
17595;SDS011;8916;47.086;15.920;2023-01-20T10:00:39;20.42;;;10.25;;
17595;SDS011;8916;47.086;15.920;2023-01-20T10:03:15;17.58;;;10.05;;
17595;SDS011;8916;47.086;15.920;2023-01-20T10:05:53;15.13;;;9.20;;
17595;SDS011;8916;47.086;15.920;2023-01-20T10:08:28;15.80;;;9.60;;
17595;SDS011;8916;47.086;15.920;2023-01-20T10:11:02;16.58;;;9.32;;
17595;SDS011;8916;47.086;15.920;2023-01-20T10:13:39;19.15;;;9.25;;
17595;SDS011;8916;47.086;15.920;2023-01-20T10:16:17;15.88;;;9.23;;
17595;SDS011;8916;47.086;15.920;2023-01-20T10:18:56;15.63;;;9.10;;
17595;SDS011;8916;47.086;15.920;2023-01-20T10:21:33;17.80;;;9.55;;
17595;SDS011;8916;47.086;15.920;2023-01-20T10:24:09;17.02;;;8.73;;
17595;SDS011;8916;47.086;15.920;2023-01-20T10:26:43;16.02;;;9.43;;
17595;SDS011;8916;47.086;15.920;2023-01-20T10:29:19;14.50;;;8.75;;
17595;SDS011;8916;47.086;15.920;2023-01-20T10:31:57;16.15;;;9.15;;
17595;SDS011;8916;47.086;15.920;2023-01-20T10:34:31;15.95;;;9.10;;
17595;SDS011;8916;47.086;15.920;2023-01-20T10:37:10;16.98;;;8.73;;
17595;SDS011;8916;47.086;15.920;2023-01-20T10:39:43;15.70;;;9.05;;
17595;SDS011;8916;47.086;15.920;2023-01-20T10:42:17;18.80;;;9.70;;
17595;SDS011;8916;47.086;15.920;2023-01-20T10:44:48;16.83;;;9.30;;
17595;SDS011;8916;47.086;15.920;2023-01-20T10:47:32;17.08;;;8.60;;
17595;SDS011;8916;47.086;15.920;2023-01-20T10:50:22;14.65;;;8.70;;
17595;SDS011;8916;47.086;15.920;2023-01-20T10:53:23;15.30;;;8.68;;
17595;SDS011;8916;47.086;15.920;2023-01-20T10:56:13;15.88;;;8.35;;
17595;SDS011;8916;47.086;15.920;2023-01-20T10:58:59;15.05;;;8.77;;
17595;SDS011;8916;47.086;15.920;2023-01-20T11:01:36;15.90;;;9.40;;
17595;SDS011;8916;47.086;15.920;2023-01-20T11:04:09;14.27;;;7.93;;
17595;SDS011;8916;47.086;15.920;2023-01-20T11:06:47;15.52;;;9.10;;
17595;SDS011;8916;47.086;15.920;2023-01-20T11:09:28;17.27;;;8.43;;
17595;SDS011;8916;47.086;15.920;2023-01-20T11:14:40;16.23;;;8.85;;
17595;SDS011;8916;47.086;15.920;2023-01-20T11:17:12;16.30;;;8.60;;
17595;SDS011;8916;47.086;15.920;2023-01-20T11:19:44;16.15;;;8.77;;
17595;SDS011;8916;47.086;15.920;2023-01-20T11:22:21;14.45;;;7.88;;
17595;SDS011;8916;47.086;15.920;2023-01-20T11:24:58;16.15;;;8.77;;
17595;SDS011;8916;47.086;15.920;2023-01-20T11:27:33;16.30;;;8.68;;
17595;SDS011;8916;47.086;15.920;2023-01-20T11:30:18;18.80;;;9.48;;
17595;SDS011;8916;47.086;15.920;2023-01-20T11:33:06;14.18;;;8.23;;
17595;SDS011;8916;47.086;15.920;2023-01-20T11:35:57;14.98;;;8.07;;
17595;SDS011;8916;47.086;15.920;2023-01-20T11:38:29;14.27;;;8.20;;
17595;SDS011;8916;47.086;15.920;2023-01-20T11:41:01;14.25;;;7.95;;
17595;SDS011;8916;47.086;15.920;2023-01-20T11:43:33;14.48;;;7.78;;
17595;SDS011;8916;47.086;15.920;2023-01-20T11:46:08;13.98;;;7.93;;
17595;SDS011;8916;47.086;15.920;2023-01-20T11:48:42;16.77;;;7.55;;
17595;SDS011;8916;47.086;15.920;2023-01-20T11:51:20;14.63;;;7.97;;
17595;SDS011;8916;47.086;15.920;2023-01-20T11:53:53;16.70;;;7.75;;
17595;SDS011;8916;47.086;15.920;2023-01-20T11:56:38;15.80;;;8.07;;
17595;SDS011;8916;47.086;15.920;2023-01-20T11:59:21;17.80;;;8.70;;
17595;SDS011;8916;47.086;15.920;2023-01-20T12:01:58;17.15;;;9.25;;
17595;SDS011;8916;47.086;15.920;2023-01-20T12:04:49;14.40;;;8.63;;
17595;SDS011;8916;47.086;15.920;2023-01-20T12:07:36;16.25;;;8.85;;
17595;SDS011;8916;47.086;15.920;2023-01-20T12:10:11;18.77;;;10.05;;
17595;SDS011;8916;47.086;15.920;2023-01-20T12:12:47;15.50;;;8.75;;
17595;SDS011;8916;47.086;15.920;2023-01-20T12:15:20;17.92;;;9.55;;
17595;SDS011;8916;47.086;15.920;2023-01-20T12:17:53;17.77;;;8.85;;
17595;SDS011;8916;47.086;15.920;2023-01-20T12:20:29;18.67;;;9.75;;
17595;SDS011;8916;47.086;15.920;2023-01-20T12:23:21;21.42;;;10.40;;
17595;SDS011;8916;47.086;15.920;2023-01-20T12:26:07;19.80;;;10.73;;
17595;SDS011;8916;47.086;15.920;2023-01-20T12:28:40;20.13;;;10.52;;
17595;SDS011;8916;47.086;15.920;2023-01-20T12:31:24;20.83;;;10.48;;
17595;SDS011;8916;47.086;15.920;2023-01-20T12:33:55;18.80;;;11.05;;
17595;SDS011;8916;47.086;15.920;2023-01-20T12:36:35;20.77;;;9.40;;
17595;SDS011;8916;47.086;15.920;2023-01-20T12:39:27;16.17;;;9.52;;
17595;SDS011;8916;47.086;15.920;2023-01-20T12:45:27;16.58;;;9.45;;
17595;SDS011;8916;47.086;15.920;2023-01-20T12:48:19;18.83;;;9.00;;
17595;SDS011;8916;47.086;15.920;2023-01-20T12:51:04;17.97;;;9.00;;
17595;SDS011;8916;47.086;15.920;2023-01-20T12:54:03;15.07;;;8.48;;
17595;SDS011;8916;47.086;15.920;2023-01-20T12:56:58;20.15;;;8.18;;
17595;SDS011;8916;47.086;15.920;2023-01-20T12:59:37;17.00;;;8.65;;
17595;SDS011;8916;47.086;15.920;2023-01-20T13:02:29;14.70;;;8.10;;
17595;SDS011;8916;47.086;15.920;2023-01-20T13:05:27;14.95;;;8.93;;
17595;SDS011;8916;47.086;15.920;2023-01-20T13:08:17;16.50;;;8.98;;
17595;SDS011;8916;47.086;15.920;2023-01-20T13:10:53;17.10;;;8.93;;
17595;SDS011;8916;47.086;15.920;2023-01-20T13:13:36;16.08;;;8.73;;
17595;SDS011;8916;47.086;15.920;2023-01-20T13:16:27;18.17;;;10.00;;
17595;SDS011;8916;47.086;15.920;2023-01-20T13:19:11;17.15;;;9.05;;
17595;SDS011;8916;47.086;15.920;2023-01-20T13:21:43;18.30;;;9.98;;
17595;SDS011;8916;47.086;15.920;2023-01-20T13:24:30;21.15;;;9.77;;
17595;SDS011;8916;47.086;15.920;2023-01-20T13:26:59;17.55;;;9.52;;
17595;SDS011;8916;47.086;15.920;2023-01-20T13:29:39;21.10;;;9.77;;
17595;SDS011;8916;47.086;15.920;2023-01-20T13:38:16;15.75;;;9.32;;
17595;SDS011;8916;47.086;15.920;2023-01-20T13:40:50;15.07;;;8.75;;
17595;SDS011;8916;47.086;15.920;2023-01-20T13:43:31;15.20;;;9.55;;
17595;SDS011;8916;47.086;15.920;2023-01-20T13:49:43;21.67;;;8.68;;
17595;SDS011;8916;47.086;15.920;2023-01-20T13:58:29;18.08;;;9.40;;
17595;SDS011;8916;47.086;15.920;2023-01-20T14:01:01;20.20;;;9.45;;
17595;SDS011;8916;47.086;15.920;2023-01-20T14:03:33;22.10;;;9.82;;
17595;SDS011;8916;47.086;15.920;2023-01-20T14:06:18;27.48;;;10.57;;
17595;SDS011;8916;47.086;15.920;2023-01-20T14:08:53;26.80;;;10.75;;
17595;SDS011;8916;47.086;15.920;2023-01-20T14:11:23;24.45;;;12.02;;
17595;SDS011;8916;47.086;15.920;2023-01-20T14:13:56;24.58;;;11.95;;
17595;SDS011;8916;47.086;15.920;2023-01-20T14:16:28;24.48;;;11.38;;
17595;SDS011;8916;47.086;15.920;2023-01-20T14:19:15;24.13;;;11.88;;
17595;SDS011;8916;47.086;15.920;2023-01-20T14:21:50;24.75;;;11.52;;
17595;SDS011;8916;47.086;15.920;2023-01-20T14:24:27;23.70;;;12.57;;
17595;SDS011;8916;47.086;15.920;2023-01-20T14:27:05;21.52;;;12.27;;
17595;SDS011;8916;47.086;15.920;2023-01-20T14:29:38;35.78;;;14.07;;
17595;SDS011;8916;47.086;15.920;2023-01-20T14:32:18;27.23;;;13.60;;
17595;SDS011;8916;47.086;15.920;2023-01-20T14:34:52;23.83;;;12.60;;
17595;SDS011;8916;47.086;15.920;2023-01-20T14:37:24;21.55;;;12.63;;
17595;SDS011;8916;47.086;15.920;2023-01-20T14:39:59;20.85;;;10.68;;
17595;SDS011;8916;47.086;15.920;2023-01-20T14:42:34;9.68;;;6.03;;
17595;SDS011;8916;47.086;15.920;2023-01-20T14:45:15;11.45;;;5.30;;
17595;SDS011;8916;47.086;15.920;2023-01-20T14:47:47;7.85;;;3.92;;
17595;SDS011;8916;47.086;15.920;2023-01-20T14:50:19;7.22;;;4.00;;
17595;SDS011;8916;47.086;15.920;2023-01-20T14:52:49;6.68;;;3.95;;
17595;SDS011;8916;47.086;15.920;2023-01-20T14:55:27;4.75;;;3.10;;
17595;SDS011;8916;47.086;15.920;2023-01-20T14:58:05;4.53;;;2.75;;
17595;SDS011;8916;47.086;15.920;2023-01-20T15:00:36;8.57;;;3.00;;
17595;SDS011;8916;47.086;15.920;2023-01-20T15:03:11;6.03;;;2.67;;
17595;SDS011;8916;47.086;15.920;2023-01-20T15:05:51;7.20;;;3.00;;
17595;SDS011;8916;47.086;15.920;2023-01-20T15:08:25;9.50;;;3.10;;
17595;SDS011;8916;47.086;15.920;2023-01-20T15:11:13;6.28;;;2.83;;
17595;SDS011;8916;47.086;15.920;2023-01-20T15:14:05;6.47;;;3.55;;
17595;SDS011;8916;47.086;15.920;2023-01-20T15:16:41;5.43;;;2.38;;
17595;SDS011;8916;47.086;15.920;2023-01-20T15:19:17;5.40;;;2.55;;
17595;SDS011;8916;47.086;15.920;2023-01-20T15:22:16;5.03;;;2.75;;
17595;SDS011;8916;47.086;15.920;2023-01-20T15:24:52;7.47;;;3.38;;
17595;SDS011;8916;47.086;15.920;2023-01-20T15:27:27;9.50;;;3.22;;
17595;SDS011;8916;47.086;15.920;2023-01-20T15:30:00;5.28;;;3.03;;
17595;SDS011;8916;47.086;15.920;2023-01-20T15:35:17;4.97;;;2.88;;
17595;SDS011;8916;47.086;15.920;2023-01-20T15:37:52;7.82;;;2.97;;
17595;SDS011;8916;47.086;15.920;2023-01-20T15:40:22;7.35;;;2.83;;